sensor_id;sensor_type;location;lat;lon;timestamp;P1;durP1;ratioP1;P2;durP2;ratioP2
34302;SDS011;20785;50.020;19.916;2023-03-07T00:01:51;30.20;;;15.50;;
34302;SDS011;20785;50.020;19.916;2023-03-07T00:07:54;31.20;;;15.30;;
34302;SDS011;20785;50.020;19.916;2023-03-07T00:13:57;31.10;;;15.30;;
34302;SDS011;20785;50.020;19.916;2023-03-07T00:20:00;29.60;;;15.00;;
34302;SDS011;20785;50.020;19.916;2023-03-07T00:26:04;31.60;;;14.50;;
34302;SDS011;20785;50.020;19.916;2023-03-07T00:32:07;30.90;;;13.90;;
34302;SDS011;20785;50.020;19.916;2023-03-07T00:38:10;27.30;;;13.50;;
34302;SDS011;20785;50.020;19.916;2023-03-07T00:44:13;25.00;;;13.10;;
34302;SDS011;20785;50.020;19.916;2023-03-07T00:50:16;25.10;;;12.20;;
34302;SDS011;20785;50.020;19.916;2023-03-07T00:56:20;24.10;;;12.20;;
34302;SDS011;20785;50.020;19.916;2023-03-07T01:02:24;27.00;;;13.00;;
34302;SDS011;20785;50.020;19.916;2023-03-07T01:08:28;24.50;;;12.50;;
34302;SDS011;20785;50.020;19.916;2023-03-07T01:14:32;23.60;;;11.20;;
34302;SDS011;20785;50.020;19.916;2023-03-07T01:20:35;20.80;;;10.50;;
34302;SDS011;20785;50.020;19.916;2023-03-07T01:26:39;22.40;;;11.50;;
34302;SDS011;20785;50.020;19.916;2023-03-07T01:32:43;24.50;;;11.80;;
34302;SDS011;20785;50.020;19.916;2023-03-07T01:38:46;25.30;;;12.50;;
34302;SDS011;20785;50.020;19.916;2023-03-07T01:45:01;20.20;;;11.20;;
34302;SDS011;20785;50.020;19.916;2023-03-07T01:51:16;24.50;;;11.70;;
34302;SDS011;20785;50.020;19.916;2023-03-07T01:57:24;20.20;;;10.80;;
34302;SDS011;20785;50.020;19.916;2023-03-07T02:03:38;20.50;;;9.90;;
34302;SDS011;20785;50.020;19.916;2023-03-07T02:09:47;23.40;;;10.90;;
34302;SDS011;20785;50.020;19.916;2023-03-07T02:15:50;19.70;;;10.10;;
34302;SDS011;20785;50.020;19.916;2023-03-07T02:21:58;22.60;;;10.70;;
34302;SDS011;20785;50.020;19.916;2023-03-07T02:28:08;22.70;;;11.60;;
34302;SDS011;20785;50.020;19.916;2023-03-07T02:34:20;21.90;;;11.60;;
34302;SDS011;20785;50.020;19.916;2023-03-07T02:40:38;22.10;;;11.70;;
34302;SDS011;20785;50.020;19.916;2023-03-07T02:46:41;24.10;;;12.30;;
34302;SDS011;20785;50.020;19.916;2023-03-07T02:52:44;22.80;;;11.20;;
34302;SDS011;20785;50.020;19.916;2023-03-07T02:58:57;21.50;;;10.90;;
34302;SDS011;20785;50.020;19.916;2023-03-07T03:05:00;22.50;;;12.10;;
34302;SDS011;20785;50.020;19.916;2023-03-07T03:11:03;24.60;;;11.70;;
34302;SDS011;20785;50.020;19.916;2023-03-07T03:17:09;22.40;;;11.40;;
34302;SDS011;20785;50.020;19.916;2023-03-07T03:23:12;19.70;;;10.70;;
34302;SDS011;20785;50.020;19.916;2023-03-07T03:29:15;21.30;;;9.90;;
34302;SDS011;20785;50.020;19.916;2023-03-07T03:35:18;20.20;;;10.50;;
34302;SDS011;20785;50.020;19.916;2023-03-07T03:41:21;20.90;;;10.20;;
34302;SDS011;20785;50.020;19.916;2023-03-07T03:47:25;20.20;;;10.60;;
34302;SDS011;20785;50.020;19.916;2023-03-07T03:53:28;21.40;;;10.80;;
34302;SDS011;20785;50.020;19.916;2023-03-07T03:59:33;22.10;;;10.90;;
34302;SDS011;20785;50.020;19.916;2023-03-07T04:05:39;17.80;;;9.40;;
34302;SDS011;20785;50.020;19.916;2023-03-07T04:11:42;17.20;;;9.60;;
34302;SDS011;20785;50.020;19.916;2023-03-07T04:17:45;20.70;;;10.60;;
34302;SDS011;20785;50.020;19.916;2023-03-07T04:23:49;21.10;;;9.90;;
34302;SDS011;20785;50.020;19.916;2023-03-07T04:29:58;18.50;;;9.60;;
34302;SDS011;20785;50.020;19.916;2023-03-07T04:36:01;16.00;;;8.60;;
34302;SDS011;20785;50.020;19.916;2023-03-07T04:42:04;18.00;;;9.00;;
34302;SDS011;20785;50.020;19.916;2023-03-07T04:48:10;17.70;;;9.50;;
34302;SDS011;20785;50.020;19.916;2023-03-07T04:54:13;17.70;;;9.20;;
34302;SDS011;20785;50.020;19.916;2023-03-07T05:00:17;18.80;;;9.40;;
34302;SDS011;20785;50.020;19.916;2023-03-07T05:06:22;18.50;;;9.70;;
34302;SDS011;20785;50.020;19.916;2023-03-07T05:12:25;20.90;;;10.10;;
34302;SDS011;20785;50.020;19.916;2023-03-07T05:18:29;18.50;;;9.90;;
34302;SDS011;20785;50.020;19.916;2023-03-07T05:24:33;17.90;;;9.80;;
34302;SDS011;20785;50.020;19.916;2023-03-07T05:30:36;17.10;;;9.20;;
34302;SDS011;20785;50.020;19.916;2023-03-07T05:36:41;17.00;;;8.80;;
34302;SDS011;20785;50.020;19.916;2023-03-07T05:42:47;20.00;;;9.70;;
34302;SDS011;20785;50.020;19.916;2023-03-07T05:48:50;21.50;;;10.60;;
34302;SDS011;20785;50.020;19.916;2023-03-07T05:54:56;21.00;;;9.80;;
34302;SDS011;20785;50.020;19.916;2023-03-07T06:01:01;17.90;;;8.80;;
34302;SDS011;20785;50.020;19.916;2023-03-07T06:07:06;17.80;;;9.50;;
34302;SDS011;20785;50.020;19.916;2023-03-07T06:13:14;20.40;;;9.60;;
34302;SDS011;20785;50.020;19.916;2023-03-07T06:19:21;19.90;;;10.00;;
34302;SDS011;20785;50.020;19.916;2023-03-07T06:25:25;18.80;;;10.10;;
34302;SDS011;20785;50.020;19.916;2023-03-07T06:31:28;19.10;;;10.00;;
34302;SDS011;20785;50.020;19.916;2023-03-07T06:37:32;19.30;;;9.80;;
34302;SDS011;20785;50.020;19.916;2023-03-07T06:43:41;21.50;;;10.70;;
34302;SDS011;20785;50.020;19.916;2023-03-07T06:50:03;18.10;;;10.10;;
34302;SDS011;20785;50.020;19.916;2023-03-07T06:56:09;18.90;;;10.70;;
34302;SDS011;20785;50.020;19.916;2023-03-07T07:02:13;21.90;;;11.20;;
34302;SDS011;20785;50.020;19.916;2023-03-07T07:08:17;23.90;;;11.30;;
34302;SDS011;20785;50.020;19.916;2023-03-07T07:14:20;21.30;;;11.00;;
34302;SDS011;20785;50.020;19.916;2023-03-07T07:20:31;19.20;;;9.90;;
34302;SDS011;20785;50.020;19.916;2023-03-07T07:26:35;19.40;;;10.80;;
34302;SDS011;20785;50.020;19.916;2023-03-07T07:32:44;22.90;;;11.20;;
34302;SDS011;20785;50.020;19.916;2023-03-07T07:38:58;22.90;;;12.10;;
34302;SDS011;20785;50.020;19.916;2023-03-07T07:45:02;20.60;;;11.50;;
34302;SDS011;20785;50.020;19.916;2023-03-07T07:51:05;21.60;;;11.50;;
34302;SDS011;20785;50.020;19.916;2023-03-07T07:57:18;18.00;;;10.10;;
34302;SDS011;20785;50.020;19.916;2023-03-07T08:03:28;18.10;;;9.70;;
34302;SDS011;20785;50.020;19.916;2023-03-07T08:15:39;17.90;;;9.80;;
34302;SDS011;20785;50.020;19.916;2023-03-07T08:21:45;15.50;;;9.40;;
34302;SDS011;20785;50.020;19.916;2023-03-07T08:27:51;18.50;;;9.60;;
34302;SDS011;20785;50.020;19.916;2023-03-07T08:34:02;13.80;;;8.40;;
34302;SDS011;20785;50.020;19.916;2023-03-07T08:40:08;16.20;;;9.30;;
34302;SDS011;20785;50.020;19.916;2023-03-07T08:46:12;16.20;;;9.00;;
34302;SDS011;20785;50.020;19.916;2023-03-07T08:52:15;17.70;;;9.50;;
34302;SDS011;20785;50.020;19.916;2023-03-07T08:58:18;14.40;;;8.90;;
34302;SDS011;20785;50.020;19.916;2023-03-07T09:04:21;14.70;;;8.20;;
34302;SDS011;20785;50.020;19.916;2023-03-07T09:10:24;13.30;;;7.90;;
34302;SDS011;20785;50.020;19.916;2023-03-07T09:16:28;13.50;;;7.80;;
34302;SDS011;20785;50.020;19.916;2023-03-07T09:22:32;14.50;;;8.00;;
34302;SDS011;20785;50.020;19.916;2023-03-07T09:28:35;12.60;;;7.20;;
34302;SDS011;20785;50.020;19.916;2023-03-07T09:34:38;10.80;;;6.50;;
34302;SDS011;20785;50.020;19.916;2023-03-07T09:40:42;11.20;;;6.10;;
34302;SDS011;20785;50.020;19.916;2023-03-07T09:59:47;11.60;;;6.80;;
34302;SDS011;20785;50.020;19.916;2023-03-07T10:05:54;12.60;;;7.00;;
34302;SDS011;20785;50.020;19.916;2023-03-07T10:12:04;12.10;;;6.80;;
34302;SDS011;20785;50.020;19.916;2023-03-07T10:31:25;12.40;;;6.80;;
34302;SDS011;20785;50.020;19.916;2023-03-07T10:37:35;11.80;;;6.40;;
34302;SDS011;20785;50.020;19.916;2023-03-07T10:44:00;12.90;;;6.70;;
34302;SDS011;20785;50.020;19.916;2023-03-07T10:56:16;9.70;;;6.00;;
34302;SDS011;20785;50.020;19.916;2023-03-07T11:08:48;11.30;;;6.40;;
34302;SDS011;20785;50.020;19.916;2023-03-07T11:14:55;10.00;;;6.20;;
34302;SDS011;20785;50.020;19.916;2023-03-07T11:20:59;11.80;;;6.60;;
34302;SDS011;20785;50.020;19.916;2023-03-07T11:27:03;11.90;;;6.80;;
34302;SDS011;20785;50.020;19.916;2023-03-07T11:45:42;12.60;;;6.90;;
34302;SDS011;20785;50.020;19.916;2023-03-07T11:51:59;11.70;;;7.10;;
34302;SDS011;20785;50.020;19.916;2023-03-07T12:04:30;11.80;;;7.30;;
34302;SDS011;20785;50.020;19.916;2023-03-07T12:23:25;10.60;;;6.70;;
34302;SDS011;20785;50.020;19.916;2023-03-07T12:35:44;12.90;;;7.20;;
34302;SDS011;20785;50.020;19.916;2023-03-07T12:48:50;12.10;;;7.10;;
34302;SDS011;20785;50.020;19.916;2023-03-07T12:55:00;10.90;;;6.70;;
34302;SDS011;20785;50.020;19.916;2023-03-07T13:01:19;12.00;;;7.10;;
34302;SDS011;20785;50.020;19.916;2023-03-07T13:07:28;11.80;;;6.80;;
34302;SDS011;20785;50.020;19.916;2023-03-07T13:19:50;11.70;;;7.10;;
34302;SDS011;20785;50.020;19.916;2023-03-07T13:25:58;11.90;;;7.20;;
34302;SDS011;20785;50.020;19.916;2023-03-07T13:32:02;10.70;;;6.80;;
34302;SDS011;20785;50.020;19.916;2023-03-07T13:44:28;12.20;;;7.00;;
34302;SDS011;20785;50.020;19.916;2023-03-07T13:56:39;14.70;;;7.20;;
34302;SDS011;20785;50.020;19.916;2023-03-07T14:02:43;15.40;;;7.40;;
34302;SDS011;20785;50.020;19.916;2023-03-07T14:08:47;13.80;;;7.70;;
34302;SDS011;20785;50.020;19.916;2023-03-07T14:15:15;11.90;;;7.10;;
34302;SDS011;20785;50.020;19.916;2023-03-07T14:21:28;12.60;;;7.00;;
34302;SDS011;20785;50.020;19.916;2023-03-07T14:27:59;13.60;;;7.60;;
34302;SDS011;20785;50.020;19.916;2023-03-07T14:34:00;13.50;;;7.10;;
34302;SDS011;20785;50.020;19.916;2023-03-07T14:52:44;12.10;;;7.20;;
34302;SDS011;20785;50.020;19.916;2023-03-07T14:58:51;13.70;;;7.80;;
34302;SDS011;20785;50.020;19.916;2023-03-07T15:04:56;14.20;;;7.90;;
34302;SDS011;20785;50.020;19.916;2023-03-07T15:17:37;12.20;;;7.00;;
34302;SDS011;20785;50.020;19.916;2023-03-07T15:23:52;15.10;;;7.80;;
34302;SDS011;20785;50.020;19.916;2023-03-07T15:29:58;16.10;;;8.10;;
34302;SDS011;20785;50.020;19.916;2023-03-07T15:42:18;13.40;;;6.40;;
34302;SDS011;20785;50.020;19.916;2023-03-07T15:48:26;13.00;;;6.30;;
34302;SDS011;20785;50.020;19.916;2023-03-07T15:54:37;11.70;;;6.40;;
34302;SDS011;20785;50.020;19.916;2023-03-07T16:00:42;14.40;;;7.70;;
34302;SDS011;20785;50.020;19.916;2023-03-07T16:06:45;13.90;;;7.60;;
34302;SDS011;20785;50.020;19.916;2023-03-07T16:12:48;13.70;;;7.70;;
34302;SDS011;20785;50.020;19.916;2023-03-07T16:18:51;15.20;;;7.60;;
34302;SDS011;20785;50.020;19.916;2023-03-07T16:24:55;12.70;;;7.50;;
34302;SDS011;20785;50.020;19.916;2023-03-07T16:30:58;12.40;;;7.60;;
34302;SDS011;20785;50.020;19.916;2023-03-07T16:37:01;15.60;;;8.10;;
34302;SDS011;20785;50.020;19.916;2023-03-07T16:43:04;13.70;;;7.10;;
34302;SDS011;20785;50.020;19.916;2023-03-07T16:49:25;14.70;;;8.20;;
34302;SDS011;20785;50.020;19.916;2023-03-07T16:55:28;13.80;;;7.90;;
34302;SDS011;20785;50.020;19.916;2023-03-07T17:01:31;15.50;;;8.10;;
34302;SDS011;20785;50.020;19.916;2023-03-07T17:07:34;13.40;;;8.20;;
34302;SDS011;20785;50.020;19.916;2023-03-07T17:13:37;15.70;;;8.50;;
34302;SDS011;20785;50.020;19.916;2023-03-07T17:19:40;18.30;;;9.40;;
34302;SDS011;20785;50.020;19.916;2023-03-07T17:25:46;15.10;;;8.60;;
34302;SDS011;20785;50.020;19.916;2023-03-07T17:31:50;16.40;;;9.60;;
34302;SDS011;20785;50.020;19.916;2023-03-07T17:37:53;18.00;;;10.10;;
34302;SDS011;20785;50.020;19.916;2023-03-07T17:43:56;19.40;;;10.70;;
34302;SDS011;20785;50.020;19.916;2023-03-07T17:50:02;23.10;;;11.30;;
34302;SDS011;20785;50.020;19.916;2023-03-07T17:56:07;24.30;;;12.00;;
34302;SDS011;20785;50.020;19.916;2023-03-07T18:02:15;23.80;;;12.50;;
34302;SDS011;20785;50.020;19.916;2023-03-07T18:08:19;25.60;;;13.50;;
34302;SDS011;20785;50.020;19.916;2023-03-07T18:14:22;25.80;;;13.80;;
34302;SDS011;20785;50.020;19.916;2023-03-07T18:20:30;26.80;;;14.20;;
34302;SDS011;20785;50.020;19.916;2023-03-07T18:26:38;22.80;;;13.10;;
34302;SDS011;20785;50.020;19.916;2023-03-07T18:32:41;25.70;;;13.40;;
34302;SDS011;20785;50.020;19.916;2023-03-07T18:38:45;24.90;;;13.30;;
34302;SDS011;20785;50.020;19.916;2023-03-07T18:44:48;25.50;;;13.50;;
34302;SDS011;20785;50.020;19.916;2023-03-07T18:50:58;22.40;;;12.10;;
34302;SDS011;20785;50.020;19.916;2023-03-07T18:57:02;21.80;;;12.40;;
34302;SDS011;20785;50.020;19.916;2023-03-07T19:03:05;23.80;;;12.60;;
34302;SDS011;20785;50.020;19.916;2023-03-07T19:09:15;22.80;;;12.70;;
34302;SDS011;20785;50.020;19.916;2023-03-07T19:15:20;22.80;;;12.60;;
34302;SDS011;20785;50.020;19.916;2023-03-07T19:21:24;21.80;;;11.60;;
34302;SDS011;20785;50.020;19.916;2023-03-07T19:27:28;26.20;;;13.00;;
34302;SDS011;20785;50.020;19.916;2023-03-07T19:39:38;21.40;;;11.30;;
34302;SDS011;20785;50.020;19.916;2023-03-07T19:45:44;23.60;;;13.10;;
34302;SDS011;20785;50.020;19.916;2023-03-07T19:51:47;21.40;;;11.90;;
34302;SDS011;20785;50.020;19.916;2023-03-07T19:57:55;20.80;;;11.20;;
34302;SDS011;20785;50.020;19.916;2023-03-07T20:03:58;23.50;;;11.70;;
34302;SDS011;20785;50.020;19.916;2023-03-07T20:10:02;20.60;;;11.30;;
34302;SDS011;20785;50.020;19.916;2023-03-07T20:16:14;21.60;;;12.10;;
34302;SDS011;20785;50.020;19.916;2023-03-07T20:22:21;19.80;;;11.10;;
34302;SDS011;20785;50.020;19.916;2023-03-07T20:28:26;26.80;;;12.10;;
34302;SDS011;20785;50.020;19.916;2023-03-07T20:34:29;21.90;;;11.60;;
34302;SDS011;20785;50.020;19.916;2023-03-07T20:40:35;20.50;;;10.50;;
34302;SDS011;20785;50.020;19.916;2023-03-07T20:46:38;21.80;;;10.40;;
34302;SDS011;20785;50.020;19.916;2023-03-07T20:52:42;17.50;;;10.20;;
34302;SDS011;20785;50.020;19.916;2023-03-07T20:58:45;19.30;;;9.80;;
34302;SDS011;20785;50.020;19.916;2023-03-07T21:04:49;18.40;;;9.00;;
34302;SDS011;20785;50.020;19.916;2023-03-07T21:11:03;15.30;;;8.20;;
34302;SDS011;20785;50.020;19.916;2023-03-07T21:17:07;15.40;;;8.30;;
34302;SDS011;20785;50.020;19.916;2023-03-07T21:23:10;15.10;;;7.40;;
34302;SDS011;20785;50.020;19.916;2023-03-07T21:29:15;14.10;;;7.60;;
34302;SDS011;20785;50.020;19.916;2023-03-07T21:35:18;15.60;;;8.30;;
34302;SDS011;20785;50.020;19.916;2023-03-07T21:41:21;13.70;;;6.90;;
34302;SDS011;20785;50.020;19.916;2023-03-07T21:47:26;13.60;;;7.40;;
34302;SDS011;20785;50.020;19.916;2023-03-07T21:53:30;16.00;;;7.60;;
34302;SDS011;20785;50.020;19.916;2023-03-07T21:59:33;13.50;;;7.40;;
34302;SDS011;20785;50.020;19.916;2023-03-07T22:05:37;16.00;;;8.00;;
34302;SDS011;20785;50.020;19.916;2023-03-07T22:19:30;14.20;;;7.70;;
34302;SDS011;20785;50.020;19.916;2023-03-07T22:25:41;16.30;;;7.60;;
34302;SDS011;20785;50.020;19.916;2023-03-07T22:31:44;15.90;;;8.20;;
34302;SDS011;20785;50.020;19.916;2023-03-07T22:37:47;12.80;;;6.90;;
34302;SDS011;20785;50.020;19.916;2023-03-07T22:44:00;16.40;;;7.50;;
34302;SDS011;20785;50.020;19.916;2023-03-07T22:51:33;17.60;;;7.30;;
34302;SDS011;20785;50.020;19.916;2023-03-07T22:57:40;14.30;;;7.40;;
34302;SDS011;20785;50.020;19.916;2023-03-07T23:03:52;14.00;;;7.30;;
34302;SDS011;20785;50.020;19.916;2023-03-07T23:17:43;12.60;;;7.40;;
34302;SDS011;20785;50.020;19.916;2023-03-07T23:23:50;14.30;;;7.60;;
34302;SDS011;20785;50.020;19.916;2023-03-07T23:30:03;12.80;;;6.70;;
34302;SDS011;20785;50.020;19.916;2023-03-07T23:36:40;11.70;;;7.00;;
34302;SDS011;20785;50.020;19.916;2023-03-07T23:42:43;14.10;;;6.90;;
34302;SDS011;20785;50.020;19.916;2023-03-07T23:48:46;13.30;;;7.10;;
34302;SDS011;20785;50.020;19.916;2023-03-07T23:54:49;13.10;;;7.50;;
